Time;durP1;ratioP1;P1;durP2;ratioP2;P2;SDS_P1;SDS_P2;PMS_P1;PMS_P2;Temp;Humidity;BMP_temperature;BMP_pressure;BME280_temperature;BME280_humidity;BME280_pressure;Samples;Min_cycle;Max_cycle;Signal;HPM_P1;HPM_P2
2022/03/16 00:02:20;;;;;;;2.75;1.65;;;16.70;43.00;;;;;;5012311;28;20482;-72
2022/03/16 00:04:51;;;;;;;5.20;2.00;;;16.80;43.10;;;;;;5012246;28;20033;-76
2022/03/16 00:07:17;;;;;;;2.45;1.70;;;16.70;43.10;;;;;;5012084;28;20042;-72
2022/03/16 00:09:44;;;;;;;3.22;1.70;;;16.70;43.10;;;;;;5013121;28;20037;-77
2022/03/16 00:12:11;;;;;;;2.55;1.98;;;16.70;43.00;;;;;;5011701;28;20049;-77
2022/03/16 00:14:37;;;;;;;2.70;1.83;;;16.70;43.10;;;;;;5012709;28;20055;-74
2022/03/16 00:17:03;;;;;;;2.45;1.88;;;16.70;43.00;;;;;;5012576;28;20038;-72
2022/03/16 00:19:29;;;;;;;3.83;2.03;;;16.70;43.00;;;;;;5011883;28;20046;-76
2022/03/16 00:21:57;;;;;;;2.38;1.88;;;16.60;42.90;;;;;;5013528;28;20514;-71
2022/03/16 00:24:23;;;;;;;3.40;2.08;;;16.60;42.90;;;;;;5013472;28;20038;-73
2022/03/16 00:26:48;;;;;;;3.10;2.03;;;16.60;43.80;;;;;;5011755;28;20092;-72
2022/03/16 00:29:14;;;;;;;2.42;2.22;;;16.60;43.00;;;;;;5011704;28;20045;-71
2022/03/16 00:31:40;;;;;;;2.83;2.10;;;16.60;43.00;;;;;;5011658;28;20051;-76
2022/03/16 00:34:14;;;;;;;3.80;2.50;;;16.60;43.10;;;;;;5011940;28;20405;-72
2022/03/16 00:36:40;;;;;;;2.75;2.22;;;16.50;43.10;;;;;;5012336;28;20393;-76
2022/03/16 00:39:09;;;;;;;2.83;2.63;;;16.60;43.20;;;;;;5013104;28;20129;-72
2022/03/16 00:41:36;;;;;;;2.22;1.90;;;16.50;43.20;;;;;;5011374;28;20052;-72
2022/03/16 00:44:03;;;;;;;2.50;1.98;;;16.50;43.20;;;;;;5011818;28;20088;-74
2022/03/16 00:46:29;;;;;;;3.47;2.00;;;16.50;43.30;;;;;;5011309;28;20045;-71
2022/03/16 00:48:57;;;;;;;2.50;2.10;;;16.50;43.30;;;;;;5012074;28;20108;-76
2022/03/16 00:51:23;;;;;;;2.08;1.88;;;16.50;43.30;;;;;;5011342;28;20052;-72
2022/03/16 00:53:48;;;;;;;2.20;2.00;;;16.50;43.30;;;;;;5011696;28;20478;-75
2022/03/16 00:56:14;;;;;;;2.42;1.80;;;16.50;43.30;;;;;;5011761;28;20589;-75
2022/03/16 00:58:40;;;;;;;3.10;2.80;;;16.40;44.00;;;;;;5011011;28;20060;-72
2022/03/16 01:01:06;;;;;;;2.95;1.85;;;16.40;43.30;;;;;;5012746;28;20099;-72
2022/03/16 01:03:35;;;;;;;2.53;1.80;;;16.50;43.30;;;;;;5011501;28;20048;-73
2022/03/16 01:06:02;;;;;;;1.95;1.63;;;16.40;43.30;;;;;;5012742;28;20115;-71
2022/03/16 01:08:28;;;;;;;2.08;1.85;;;16.40;44.10;;;;;;5012199;28;20433;-75
2022/03/16 01:10:54;;;;;;;2.00;1.67;;;16.40;43.30;;;;;;5012137;28;20113;-75
2022/03/16 01:13:20;;;;;;;3.22;2.50;;;16.40;43.30;;;;;;5012468;28;20462;-72
2022/03/16 01:15:48;;;;;;;4.07;2.05;;;16.40;43.20;;;;;;5011057;28;20040;-75
2022/03/16 01:18:15;;;;;;;3.13;2.83;;;16.40;43.30;;;;;;5010921;28;20042;-71
2022/03/16 01:20:41;;;;;;;3.03;2.38;;;16.40;43.30;;;;;;5012641;28;20323;-74
2022/03/16 01:23:07;;;;;;;2.35;1.88;;;16.40;43.30;;;;;;5011478;28;20180;-74
2022/03/16 01:25:33;;;;;;;3.40;2.70;;;16.30;43.30;;;;;;5012558;28;20073;-72
2022/03/16 01:27:58;;;;;;;2.25;1.70;;;16.30;43.30;;;;;;5010646;28;20041;-72
2022/03/16 01:30:24;;;;;;;2.50;1.88;;;16.30;43.30;;;;;;5010555;28;20072;-72
2022/03/16 01:32:50;;;;;;;3.17;2.88;;;16.30;43.40;;;;;;5010303;28;20046;-71
2022/03/16 01:35:16;;;;;;;3.78;2.70;;;16.30;43.40;;;;;;5012377;28;20073;-72
2022/03/16 01:37:43;;;;;;;3.13;2.50;;;16.30;43.40;;;;;;5010745;28;20046;-72
2022/03/16 01:40:12;;;;;;;3.20;2.55;;;16.30;43.40;;;;;;5012768;28;20037;-71
2022/03/16 01:42:39;;;;;;;2.67;2.28;;;16.30;43.40;;;;;;5012463;28;20497;-72
2022/03/16 01:45:08;;;;;;;3.50;2.92;;;16.30;43.40;;;;;;5011188;28;20397;-72
2022/03/16 01:47:34;;;;;;;3.45;3.00;;;16.20;43.40;;;;;;5010479;28;20096;-73
2022/03/16 01:50:00;;;;;;;2.90;2.70;;;16.20;43.30;;;;;;5010222;28;20120;-72
2022/03/16 01:52:28;;;;;;;3.85;3.45;;;16.20;43.30;;;;;;5011232;28;20072;-71
2022/03/16 01:54:54;;;;;;;3.10;2.63;;;16.20;43.30;;;;;;5010973;28;20103;-75
2022/03/16 01:57:21;;;;;;;3.35;2.75;;;16.20;43.20;;;;;;5010683;28;20042;-73
2022/03/16 01:59:47;;;;;;;2.92;2.70;;;16.20;43.20;;;;;;5010220;28;20050;-76
2022/03/16 02:02:13;;;;;;;3.65;2.97;;;16.20;43.30;;;;;;5011837;28;20390;-71
2022/03/16 02:04:43;;;;;;;3.03;2.83;;;16.20;43.20;;;;;;5012039;28;20045;-71
2022/03/16 02:07:09;;;;;;;2.83;2.40;;;16.10;43.20;;;;;;5011876;28;20038;-74
2022/03/16 02:09:36;;;;;;;3.00;2.67;;;16.10;43.20;;;;;;5010001;28;20129;-76
2022/03/16 02:12:02;;;;;;;3.83;3.30;;;16.10;43.20;;;;;;5011184;28;20050;-72
2022/03/16 02:14:29;;;;;;;3.63;2.92;;;16.00;43.20;;;;;;5010299;28;20486;-71
2022/03/16 02:16:56;;;;;;;3.20;2.92;;;15.90;43.40;;;;;;5012091;28;20088;-74
2022/03/16 02:19:23;;;;;;;3.15;2.85;;;15.90;43.50;;;;;;5010158;28;20053;-71
2022/03/16 02:21:55;;;;;;;2.83;2.53;;;16.00;43.60;;;;;;5011775;28;20042;-72
2022/03/16 02:24:23;;;;;;;2.13;1.92;;;16.20;43.40;;;;;;5011872;28;20489;-74
2022/03/16 02:26:48;;;;;;;2.92;2.08;;;16.60;42.90;;;;;;5011622;28;20046;-71
2022/03/16 02:29:14;;;;;;;2.20;1.95;;;17.10;42.10;;;;;;5009997;28;20038;-72
2022/03/16 02:31:40;;;;;;;2.50;2.00;;;17.50;41.20;;;;;;5010059;28;20449;-72
2022/03/16 02:34:05;;;;;;;2.42;2.22;;;18.00;40.40;;;;;;5009770;28;20050;-72
2022/03/16 02:36:31;;;;;;;1.65;1.38;;;18.40;39.70;;;;;;5010784;28;20050;-72
2022/03/16 02:38:56;;;;;;;1.70;1.42;;;18.70;38.90;;;;;;5010078;28;20406;-74
2022/03/16 02:41:22;;;;;;;1.35;1.10;;;19.10;38.30;;;;;;5010232;28;20041;-72
2022/03/16 02:43:48;;;;;;;2.65;1.40;;;19.40;37.70;;;;;;5010325;28;20076;-72
2022/03/16 02:46:13;;;;;;;2.55;1.67;;;19.70;37.20;;;;;;5010196;28;20042;-72
2022/03/16 02:48:39;;;;;;;1.60;1.05;;;20.00;36.60;;;;;;5010982;28;20057;-72
2022/03/16 02:51:04;;;;;;;1.17;0.98;;;20.20;36.20;;;;;;5010947;28;20056;-72
2022/03/16 02:53:30;;;;;;;1.10;1.00;;;20.50;35.70;;;;;;5009785;28;20425;-72
2022/03/16 02:55:56;;;;;;;1.55;1.10;;;20.60;35.30;;;;;;5010275;28;20038;-72
2022/03/16 02:58:22;;;;;;;1.55;1.45;;;20.80;35.00;;;;;;5010032;28;20053;-74
2022/03/16 03:00:48;;;;;;;1.30;1.15;;;21.00;34.60;;;;;;5011213;28;20406;-72
2022/03/16 03:03:13;;;;;;;1.25;1.08;;;21.20;34.30;;;;;;5011166;28;20034;-72
2022/03/16 03:05:39;;;;;;;1.40;1.23;;;21.30;33.90;;;;;;5013028;28;20088;-73
2022/03/16 03:08:05;;;;;;;1.30;0.98;;;21.50;33.80;;;;;;5012784;28;20528;-72
2022/03/16 03:10:34;;;;;;;1.40;0.90;;;21.60;33.50;;;;;;5012884;28;20077;-71
2022/03/16 03:12:59;;;;;;;1.67;1.00;;;21.70;33.30;;;;;;5014183;28;20639;-72
2022/03/16 03:15:25;;;;;;;1.00;0.70;;;21.80;33.10;;;;;;5013373;28;20069;-72
2022/03/16 03:17:50;;;;;;;1.30;0.88;;;21.90;32.90;;;;;;5014757;28;20092;-73
2022/03/16 03:20:16;;;;;;;1.13;0.80;;;22.00;32.70;;;;;;5013276;28;20050;-72
2022/03/16 03:22:42;;;;;;;1.35;0.88;;;22.10;32.50;;;;;;5013353;28;20457;-71
2022/03/16 03:25:12;;;;;;;1.00;0.88;;;22.20;32.40;;;;;;5013617;28;20033;-72
2022/03/16 03:27:47;;;;;;;1.58;0.88;;;22.30;32.30;;;;;;5013128;28;20066;-72
2022/03/16 03:30:12;;;;;;;1.27;0.77;;;22.30;32.10;;;;;;5013846;28;20037;-72
2022/03/16 03:32:38;;;;;;;0.90;0.63;;;22.40;31.90;;;;;;5012571;28;20050;-72
2022/03/16 03:35:08;;;;;;;0.93;0.70;;;22.40;31.80;;;;;;5014115;28;20050;-72
2022/03/16 03:37:33;;;;;;;1.45;0.80;;;22.50;31.70;;;;;;5014414;28;20513;-73
2022/03/16 03:39:59;;;;;;;0.82;0.68;;;22.50;31.60;;;;;;5012780;28;20077;-72
2022/03/16 03:42:25;;;;;;;0.80;0.52;;;22.50;31.50;;;;;;5014227;28;20034;-72
2022/03/16 03:44:51;;;;;;;1.25;0.90;;;22.50;31.40;;;;;;5014649;28;20096;-73
2022/03/16 03:47:16;;;;;;;0.88;0.70;;;22.60;31.40;;;;;;5012993;28;20046;-72
2022/03/16 03:49:43;;;;;;;1.25;0.82;;;22.60;31.30;;;;;;5013680;28;20054;-72
2022/03/16 03:52:10;;;;;;;0.85;0.73;;;22.60;31.30;;;;;;5013628;28;20037;-72
2022/03/16 03:54:36;;;;;;;1.33;1.00;;;22.70;31.20;;;;;;5012491;28;20077;-73
2022/03/16 03:57:03;;;;;;;0.90;0.60;;;22.70;31.10;;;;;;5012861;28;20069;-72
2022/03/16 03:59:28;;;;;;;0.80;0.50;;;22.70;31.00;;;;;;4996124;28;20110;-73
2022/03/16 04:01:54;;;;;;;0.90;0.60;;;22.70;31.00;;;;;;5013508;28;20501;-74
2022/03/16 04:04:20;;;;;;;1.02;0.50;;;22.70;30.90;;;;;;5012673;28;20041;-72
2022/03/16 04:06:49;;;;;;;1.10;0.70;;;22.70;30.90;;;;;;5012672;28;20042;-73
2022/03/16 04:09:14;;;;;;;1.10;0.73;;;22.70;30.90;;;;;;5012265;28;20049;-73
2022/03/16 04:11:40;;;;;;;0.80;0.63;;;22.60;30.90;;;;;;5011853;28;20444;-72
2022/03/16 04:14:06;;;;;;;1.70;0.70;;;22.60;30.90;;;;;;5012849;28;20042;-72
2022/03/16 04:16:32;;;;;;;0.90;0.77;;;22.60;30.90;;;;;;5029132;28;20041;-73
2022/03/16 04:18:58;;;;;;;1.10;0.82;;;22.60;30.90;;;;;;5012312;28;20037;-72
2022/03/16 04:21:23;;;;;;;0.98;0.63;;;22.60;30.80;;;;;;5013604;28;20062;-72
2022/03/16 04:23:49;;;;;;;1.25;0.93;;;22.70;30.80;;;;;;5012356;28;20560;-72
2022/03/16 04:26:15;;;;;;;1.10;0.88;;;22.70;30.70;;;;;;5012277;28;20540;-72
2022/03/16 04:28:41;;;;;;;1.10;0.80;;;22.70;30.60;;;;;;5011740;28;20505;-72
2022/03/16 04:31:07;;;;;;;0.80;0.68;;;22.80;30.60;;;;;;5011860;28;20041;-72
2022/03/16 04:33:33;;;;;;;0.82;0.50;;;22.80;30.50;;;;;;5027836;28;20049;-74
2022/03/16 04:35:58;;;;;;;1.50;0.60;;;22.80;30.50;;;;;;5013129;28;20042;-73
2022/03/16 04:38:24;;;;;;;1.30;0.70;;;22.80;30.40;;;;;;5013416;28;20061;-74
2022/03/16 04:40:49;;;;;;;0.98;0.70;;;22.80;30.30;;;;;;5011646;28;20041;-75
2022/03/16 04:43:15;;;;;;;0.90;0.75;;;22.80;30.30;;;;;;5013045;28;20100;-73
2022/03/16 04:45:41;;;;;;;0.98;0.82;;;22.90;30.20;;;;;;5012051;28;20397;-73
2022/03/16 04:48:08;;;;;;;1.35;0.90;;;22.90;30.20;;;;;;5011264;28;20124;-75
2022/03/16 04:50:35;;;;;;;1.00;0.90;;;22.90;30.20;;;;;;5011182;28;20103;-72
2022/03/16 04:53:01;;;;;;;0.90;0.70;;;22.90;30.10;;;;;;5011122;28;20061;-73
2022/03/16 04:55:26;;;;;;;0.88;0.70;;;22.90;30.10;;;;;;5012599;28;20041;-74
2022/03/16 04:57:52;;;;;;;1.20;0.57;;;22.90;30.00;;;;;;5016965;28;20069;-76
2022/03/16 05:00:18;;;;;;;0.90;0.60;;;22.90;30.00;;;;;;5034457;28;20049;-72
2022/03/16 05:02:43;;;;;;;1.08;0.80;;;22.90;30.00;;;;;;5052225;28;20160;-73
2022/03/16 05:05:10;;;;;;;0.90;0.73;;;22.90;30.00;;;;;;5034539;28;20044;-74
2022/03/16 05:07:37;;;;;;;0.98;0.52;;;23.00;30.00;;;;;;5034371;28;20037;-75
2022/03/16 05:10:05;;;;;;;1.08;0.70;;;22.90;30.00;;;;;;5034362;28;20175;-76
2022/03/16 05:12:39;;;;;;;0.98;0.57;;;22.90;29.90;;;;;;5051910;28;20076;-76
2022/03/16 05:15:07;;;;;;;1.63;0.63;;;23.00;29.90;;;;;;5034078;28;20045;-74
2022/03/16 05:17:33;;;;;;;1.00;0.60;;;23.00;29.90;;;;;;5034506;28;20044;-72
2022/03/16 05:19:59;;;;;;;2.15;0.85;;;23.00;29.80;;;;;;5052362;28;20396;-74
2022/03/16 05:22:24;;;;;;;0.90;0.65;;;23.10;29.80;;;;;;5033958;28;20047;-74
2022/03/16 05:24:50;;;;;;;0.70;0.50;;;23.10;29.70;;;;;;5034623;28;20052;-74
2022/03/16 05:27:19;;;;;;;0.82;0.50;;;23.10;29.70;;;;;;5034471;28;20557;-74
2022/03/16 05:29:45;;;;;;;1.25;0.63;;;23.20;29.60;;;;;;5033319;28;20044;-74
2022/03/16 05:32:10;;;;;;;1.08;0.57;;;23.30;29.60;;;;;;5051576;28;20120;-74
2022/03/16 05:34:36;;;;;;;1.35;0.68;;;23.30;29.90;;;;;;5033548;28;20041;-76
2022/03/16 05:37:02;;;;;;;1.00;0.85;;;23.30;29.50;;;;;;5052034;28;20041;-72
2022/03/16 05:39:28;;;;;;;1.00;0.90;;;23.30;29.50;;;;;;5051856;28;20068;-72
2022/03/16 05:41:54;;;;;;;0.90;0.60;;;23.30;29.50;;;;;;5051811;28;20044;-74
2022/03/16 05:44:20;;;;;;;1.00;0.60;;;23.20;29.50;;;;;;5051897;28;20029;-76
2022/03/16 05:46:45;;;;;;;1.15;0.75;;;23.20;29.60;;;;;;5051837;28;20466;-72
2022/03/16 05:49:11;;;;;;;1.20;1.00;;;23.10;29.60;;;;;;5033513;28;20106;-72
2022/03/16 05:51:36;;;;;;;2.05;0.70;;;23.10;29.60;;;;;;5033327;28;20095;-72
2022/03/16 05:54:02;;;;;;;0.80;0.60;;;23.10;29.70;;;;;;5033219;28;20072;-76
2022/03/16 05:56:35;;;;;;;1.10;0.65;;;23.00;29.70;;;;;;5017800;28;20041;-72
2022/03/16 05:59:00;;;;;;;1.25;0.80;;;23.00;29.70;;;;;;5019186;28;20064;-72
2022/03/16 06:01:26;;;;;;;1.10;0.80;;;22.90;29.80;;;;;;5010533;28;20038;-72
2022/03/16 06:03:53;;;;;;;1.33;0.70;;;22.90;29.80;;;;;;5011717;28;20034;-75
2022/03/16 06:06:20;;;;;;;2.15;0.75;;;22.90;29.80;;;;;;5011069;28;20410;-75
2022/03/16 06:08:46;;;;;;;1.00;0.60;;;22.90;29.80;;;;;;5010501;28;20562;-73
2022/03/16 06:11:11;;;;;;;0.85;0.57;;;22.90;29.80;;;;;;5011538;28;20405;-72
2022/03/16 06:13:37;;;;;;;1.40;0.70;;;22.90;29.70;;;;;;5011334;28;20038;-74
2022/03/16 06:16:03;;;;;;;1.02;0.80;;;22.90;29.70;;;;;;5011477;28;20033;-76
2022/03/16 06:18:29;;;;;;;1.27;0.90;;;22.90;29.70;;;;;;5010833;28;20034;-74
2022/03/16 06:20:54;;;;;;;1.35;0.80;;;22.90;29.60;;;;;;5010269;28;20441;-72
2022/03/16 06:23:20;;;;;;;1.40;0.90;;;23.00;29.60;;;;;;5008997;28;20048;-71
2022/03/16 06:25:46;;;;;;;1.45;0.88;;;23.00;30.00;;;;;;5009176;28;20030;-71
2022/03/16 06:28:11;;;;;;;2.05;1.02;;;22.90;30.50;;;;;;5008749;28;20046;-68
2022/03/16 06:30:37;;;;;;;1.45;0.88;;;22.80;31.00;;;;;;5006932;28;20053;-70
2022/03/16 06:33:06;;;;;;;1.77;1.10;;;22.70;31.30;;;;;;4991601;28;20112;-69
2022/03/16 06:35:32;;;;;;;1.40;0.90;;;22.50;31.80;;;;;;5007588;28;20125;-71
2022/03/16 06:37:58;;;;;;;2.22;0.90;;;22.50;32.20;;;;;;5008409;28;20081;-70
2022/03/16 06:40:24;;;;;;;1.30;1.08;;;22.40;32.20;;;;;;5009674;28;20081;-72
2022/03/16 06:42:53;;;;;;;3.17;0.77;;;22.40;32.40;;;;;;5012779;28;20045;-73
2022/03/16 06:45:20;;;;;;;6.18;1.10;;;22.40;32.50;;;;;;5011399;28;20036;-69
2022/03/16 06:47:46;;;;;;;1.35;1.10;;;22.40;32.80;;;;;;5011089;28;20045;-73
2022/03/16 06:50:12;;;;;;;1.42;1.10;;;22.40;32.70;;;;;;5011427;28;20033;-69
2022/03/16 06:52:39;;;;;;;1.58;0.90;;;22.50;32.60;;;;;;5001938;28;20042;-67
2022/03/16 06:55:06;;;;;;;0.98;0.82;;;22.50;32.70;;;;;;5008392;28;20034;-70
2022/03/16 06:57:32;;;;;;;1.98;1.33;;;22.50;32.80;;;;;;5009570;28;20041;-69
2022/03/16 06:59:58;;;;;;;1.40;1.20;;;22.60;32.60;;;;;;5007356;28;20498;-68
2022/03/16 07:02:23;;;;;;;1.90;1.38;;;22.60;32.80;;;;;;5006807;28;20145;-69
2022/03/16 07:04:49;;;;;;;2.20;1.55;;;22.60;33.60;;;;;;5002104;28;20038;-68
2022/03/16 07:07:17;;;;;;;1.95;1.10;;;22.60;33.10;;;;;;5005962;28;20050;-67
2022/03/16 07:09:43;;;;;;;1.73;1.25;;;22.60;33.00;;;;;;5006654;28;20041;-68
2022/03/16 07:12:09;;;;;;;2.88;1.02;;;22.70;32.90;;;;;;5004250;28;20033;-67
2022/03/16 07:14:35;;;;;;;3.03;1.10;;;22.70;33.70;;;;;;5001081;28;20394;-71
2022/03/16 07:17:02;;;;;;;4.75;1.00;;;22.70;33.00;;;;;;4999460;28;20169;-70
2022/03/16 07:19:31;;;;;;;3.95;1.02;;;22.70;32.90;;;;;;4981137;28;20719;-71
2022/03/16 07:22:01;;;;;;;1.95;1.20;;;22.90;32.60;;;;;;4997867;28;20041;-71
2022/03/16 07:24:27;;;;;;;2.70;0.90;;;23.10;32.40;;;;;;4997310;28;20120;-71
2022/03/16 07:26:55;;;;;;;2.92;0.70;;;23.30;32.10;;;;;;4998813;28;20164;-70
2022/03/16 07:29:21;;;;;;;2.72;0.80;;;23.30;31.90;;;;;;5007428;28;20053;-70
2022/03/16 07:31:47;;;;;;;2.35;0.70;;;23.40;31.70;;;;;;5009249;28;20102;-70
2022/03/16 07:34:14;;;;;;;1.75;0.90;;;23.50;31.80;;;;;;5005024;28;20433;-70
2022/03/16 07:36:39;;;;;;;3.95;0.85;;;23.40;31.70;;;;;;5005698;28;20088;-71
2022/03/16 07:39:08;;;;;;;1.20;0.95;;;23.40;31.70;;;;;;5010918;28;20170;-69
2022/03/16 07:41:33;;;;;;;1.48;0.90;;;23.30;31.70;;;;;;5015916;28;20750;-70
2022/03/16 07:43:59;;;;;;;4.97;2.42;;;23.20;31.80;;;;;;5009487;28;20064;-70
2022/03/16 07:46:25;;;;;;;2.45;1.90;;;23.10;32.10;;;;;;5001947;28;20120;-70
2022/03/16 07:48:50;;;;;;;2.95;1.73;;;23.00;32.40;;;;;;5009873;28;20120;-70
2022/03/16 07:51:16;;;;;;;4.25;2.20;;;22.80;32.50;;;;;;5001504;28;20445;-70
2022/03/16 07:53:41;;;;;;;2.53;2.33;;;22.70;32.70;;;;;;5002724;28;20042;-70
2022/03/16 07:56:10;;;;;;;2.88;1.80;;;22.50;32.80;;;;;;5004282;28;20049;-70
2022/03/16 07:58:38;;;;;;;2.88;1.83;;;22.40;32.90;;;;;;4995913;28;20053;-72
2022/03/16 08:01:04;;;;;;;3.42;1.77;;;22.40;33.10;;;;;;5000780;28;20052;-72
2022/03/16 08:03:30;;;;;;;2.45;2.03;;;22.30;33.20;;;;;;4999064;28;20029;-69
2022/03/16 08:05:59;;;;;;;3.95;1.48;;;22.20;33.50;;;;;;5004358;28;20037;-71
2022/03/16 08:08:28;;;;;;;2.92;1.77;;;22.20;33.50;;;;;;4999299;28;20042;-70
2022/03/16 08:10:54;;;;;;;2.30;1.02;;;22.20;33.50;;;;;;5007332;28;20046;-73
2022/03/16 08:13:20;;;;;;;3.72;1.35;;;22.20;33.50;;;;;;5008306;28;20041;-73
2022/03/16 08:15:49;;;;;;;4.90;1.42;;;22.30;33.50;;;;;;5002415;28;20376;-73
2022/03/16 08:18:14;;;;;;;2.95;1.40;;;22.30;33.50;;;;;;5007069;28;20129;-72
2022/03/16 08:20:40;;;;;;;3.05;1.33;;;22.40;33.40;;;;;;5003076;28;20084;-73
2022/03/16 08:23:08;;;;;;;3.13;1.92;;;22.50;33.40;;;;;;5006639;28;20049;-70
2022/03/16 08:25:34;;;;;;;3.72;1.55;;;22.50;33.20;;;;;;5010638;28;20375;-71
2022/03/16 08:28:01;;;;;;;3.40;1.33;;;22.60;33.20;;;;;;5004269;28;20061;-69
2022/03/16 08:30:30;;;;;;;2.45;1.63;;;22.60;33.90;;;;;;5007135;28;20045;-69
2022/03/16 08:32:55;;;;;;;3.42;1.63;;;22.70;33.10;;;;;;4999590;28;20140;-72
2022/03/16 08:35:22;;;;;;;2.65;1.20;;;22.70;33.00;;;;;;4999375;28;20820;-71
2022/03/16 08:37:51;;;;;;;4.10;1.48;;;22.70;33.00;;;;;;5010389;28;20087;-70
2022/03/16 08:40:17;;;;;;;3.55;1.23;;;22.70;33.80;;;;;;5013476;28;20107;-73
2022/03/16 08:42:43;;;;;;;4.25;1.98;;;22.70;33.00;;;;;;5007887;28;20547;-72
2022/03/16 08:45:10;;;;;;;1.55;1.13;;;22.70;33.00;;;;;;5008353;28;20073;-73
2022/03/16 08:47:37;;;;;;;2.25;1.10;;;22.70;33.00;;;;;;4994602;28;20056;-73
2022/03/16 08:50:09;;;;;;;3.20;1.48;;;22.70;33.10;;;;;;5008855;28;20494;-72
2022/03/16 08:52:35;;;;;;;2.95;2.42;;;22.60;33.10;;;;;;5014460;28;20445;-72
2022/03/16 08:55:00;;;;;;;3.25;2.25;;;22.60;33.20;;;;;;5001487;28;20042;-71
2022/03/16 08:57:26;;;;;;;4.82;2.33;;;22.60;33.20;;;;;;5001427;28;20077;-72
2022/03/16 08:59:53;;;;;;;3.67;2.10;;;22.50;33.20;;;;;;4996565;28;20691;-71
2022/03/16 09:02:18;;;;;;;2.47;1.70;;;22.50;33.30;;;;;;4990908;28;20041;-72
2022/03/16 09:04:44;;;;;;;3.35;2.25;;;22.40;33.30;;;;;;5002526;28;20046;-71
2022/03/16 09:07:10;;;;;;;4.80;2.20;;;22.40;33.40;;;;;;5010003;28;20090;-70
2022/03/16 09:09:36;;;;;;;3.83;1.90;;;22.40;33.60;;;;;;5011508;28;20469;-70
2022/03/16 09:12:01;;;;;;;6.28;2.42;;;22.40;33.70;;;;;;5010827;28;20083;-70
2022/03/16 09:14:30;;;;;;;5.15;2.13;;;22.30;33.70;;;;;;5000830;28;20919;-70
2022/03/16 09:16:56;;;;;;;4.32;1.83;;;22.30;33.80;;;;;;4996297;28;20038;-70
2022/03/16 09:19:21;;;;;;;2.85;1.50;;;22.30;33.80;;;;;;5004765;28;20556;-72
2022/03/16 09:21:48;;;;;;;3.97;1.88;;;22.30;33.80;;;;;;5013170;28;20037;-70
2022/03/16 09:24:14;;;;;;;2.78;2.10;;;22.30;33.90;;;;;;5012715;28;20573;-69
2022/03/16 09:26:40;;;;;;;3.42;1.65;;;22.30;34.00;;;;;;5010958;28;20049;-70
2022/03/16 09:29:08;;;;;;;2.90;1.95;;;22.20;33.90;;;;;;5010784;28;20060;-73
2022/03/16 09:31:36;;;;;;;3.55;1.88;;;22.30;34.10;;;;;;5007951;28;20045;-74
2022/03/16 09:34:05;;;;;;;2.13;1.27;;;22.20;34.00;;;;;;5010774;28;20053;-71
2022/03/16 09:36:32;;;;;;;6.13;2.40;;;22.20;34.10;;;;;;5004406;28;20347;-69
2022/03/16 09:38:58;;;;;;;5.00;2.13;;;22.20;34.20;;;;;;5001392;28;20349;-70
2022/03/16 09:41:26;;;;;;;4.93;1.35;;;22.20;34.30;;;;;;5008678;28;20702;-70
2022/03/16 09:43:53;;;;;;;5.00;1.48;;;22.10;34.30;;;;;;5013593;28;20050;-73
2022/03/16 09:46:24;;;;;;;2.78;1.65;;;22.10;34.30;;;;;;4999429;28;20073;-72
2022/03/16 09:48:50;;;;;;;4.15;1.83;;;22.10;34.30;;;;;;5012683;28;20167;-71
2022/03/16 09:51:18;;;;;;;2.67;1.65;;;22.10;34.30;;;;;;5007253;28;20593;-71
2022/03/16 09:53:45;;;;;;;4.10;1.48;;;22.10;34.30;;;;;;5010708;28;20049;-69
2022/03/16 09:56:11;;;;;;;4.03;1.55;;;22.10;34.30;;;;;;5001836;28;20046;-73
2022/03/16 09:58:37;;;;;;;3.38;2.63;;;22.10;34.30;;;;;;5022414;28;20132;-72
2022/03/16 10:01:05;;;;;;;4.35;3.40;;;22.10;34.50;;;;;;5049088;28;20616;-74
2022/03/16 10:03:31;;;;;;;6.22;4.25;;;22.10;35.00;;;;;;5039656;28;20045;-71
2022/03/16 10:05:58;;;;;;;7.05;5.05;;;22.00;35.20;;;;;;5042017;28;20736;-73
2022/03/16 10:08:36;;;;;;;5.53;4.88;;;22.00;35.50;;;;;;5041559;28;20128;-73
2022/03/16 10:14:07;;;;;;;8.43;5.28;;;21.80;35.50;;;;;;5031880;28;20768;-76
2022/03/16 10:19:20;;;;;;;10.18;5.10;;;21.70;35.60;;;;;;5034407;28;20515;-72
2022/03/16 10:22:02;;;;;;;6.47;5.68;;;21.70;35.60;;;;;;5056959;28;20081;-72
2022/03/16 10:24:29;;;;;;;6.28;5.22;;;21.70;35.80;;;;;;5035287;28;21076;-72
2022/03/16 10:26:58;;;;;;;6.50;4.68;;;21.70;35.70;;;;;;5052475;28;20071;-71
2022/03/16 10:29:26;;;;;;;6.32;3.80;;;21.70;35.60;;;;;;5044800;28;20036;-74
2022/03/16 10:32:02;;;;;;;5.88;3.30;;;21.70;35.60;;;;;;5047232;28;20045;-72
2022/03/16 10:34:28;;;;;;;9.85;4.05;;;21.70;35.80;;;;;;5030583;28;20044;-71
2022/03/16 10:36:53;;;;;;;5.18;2.63;;;21.70;35.70;;;;;;5048190;28;20071;-73
2022/03/16 10:39:32;;;;;;;4.88;2.63;;;21.80;35.60;;;;;;5032557;28;20642;-74
2022/03/16 10:50:58;;;;;;;3.15;1.38;;;22.10;34.90;;;;;;5063677;28;20403;-72
2022/03/16 10:53:29;;;;;;;6.28;2.30;;;22.10;34.70;;;;;;5057542;28;20068;-72
2022/03/16 10:55:59;;;;;;;;;;;22.20;34.60;;;;;;5070670;28;20131;-73
2022/03/16 10:58:26;;;;;;;;;;;22.20;34.50;;;;;;5069091;28;20003;-74
2022/03/16 11:00:52;;;;;;;3.72;1.98;;;22.20;34.50;;;;;;5071122;28;20394;-71
2022/03/16 11:03:23;;;;;;;4.22;1.38;;;22.20;34.30;;;;;;5057656;28;20047;-72
2022/03/16 11:05:52;;;;;;;2.05;1.40;;;22.30;34.30;;;;;;5056445;28;20039;-70
2022/03/16 11:08:20;;;;;;;1.95;1.25;;;22.30;34.30;;;;;;5051311;28;20041;-72
2022/03/16 11:10:46;;;;;;;2.60;1.40;;;22.30;35.00;;;;;;5049121;28;20097;-71
2022/03/16 11:13:43;;;;;;;3.47;1.25;;;22.30;34.20;;;;;;5050476;28;20040;-71
2022/03/16 11:15:59;;;;;;;4.07;1.25;;;22.20;34.10;;;;;;5048696;28;20837;-74
2022/03/16 11:18:26;;;;;;;2.20;1.30;;;22.20;34.00;;;;;;5053800;28;20040;-71
2022/03/16 11:21:01;;;;;;;2.40;1.48;;;22.20;34.10;;;;;;5053135;28;20081;-74
2022/03/16 11:32:35;;;;;;;2.17;1.30;;;22.10;34.20;;;;;;5083521;27;20445;-68
2022/03/16 11:35:02;;;;;;;2.28;1.25;;;22.00;34.30;;;;;;5056924;28;20645;-69
2022/03/16 12:05:01;;;;;;;3.13;2.15;;;21.60;34.90;;;;;;5082224;28;20409;-72
2022/03/16 12:07:34;;;;;;;3.53;2.15;;;21.50;34.90;;;;;;5074064;28;20044;-74
2022/03/16 12:12:57;;;;;;;2.92;1.52;;;21.50;35.00;;;;;;5102785;27;20388;-69
2022/03/16 12:20:56;;;;;;;3.05;0.90;;;21.50;34.90;;;;;;5123985;27;20411;-70
2022/03/16 12:23:43;;;;;;;3.63;1.42;;;21.60;34.80;;;;;;5122182;28;20035;-71
2022/03/16 12:26:09;;;;;;;1.70;1.00;;;21.70;34.80;;;;;;5120108;28;20069;-72
2022/03/16 12:29:07;;;;;;;2.15;1.60;;;21.70;34.70;;;;;;5121615;28;20494;-72
2022/03/16 12:31:21;;;;;;;2.88;1.33;;;21.80;34.60;;;;;;5117812;28;20055;-71
2022/03/16 12:33:55;;;;;;;2.22;1.50;;;21.80;34.50;;;;;;5123395;28;20042;-71
2022/03/16 12:39:10;;;;;;;1.95;1.15;;;21.80;34.30;;;;;;5109278;27;20180;-69
2022/03/16 12:44:25;;;;;;;2.28;1.05;;;21.90;34.10;;;;;;5108277;28;20055;-68
2022/03/16 12:47:16;;;;;;;1.40;0.80;;;22.00;34.10;;;;;;5102453;28;20079;-68
2022/03/16 12:49:46;;;;;;;3.08;0.90;;;22.00;34.00;;;;;;5112478;28;20762;-67
2022/03/16 12:52:12;;;;;;;2.60;0.85;;;22.10;33.90;;;;;;5107423;28;20037;-69
2022/03/16 12:54:40;;;;;;;1.33;1.10;;;22.10;33.80;;;;;;5138006;27;20118;-71
2022/03/16 12:57:09;;;;;;;1.50;0.88;;;22.10;33.80;;;;;;5116812;28;20115;-68
2022/03/16 12:59:39;;;;;;;1.33;0.98;;;22.10;33.70;;;;;;5118503;27;20044;-68
2022/03/16 13:02:10;;;;;;;1.98;1.00;;;22.20;33.80;;;;;;5109119;28;20569;-70
2022/03/16 13:04:37;;;;;;;2.30;0.70;;;22.20;33.70;;;;;;5117027;28;20055;-71
2022/03/16 13:07:05;;;;;;;0.98;0.70;;;22.20;33.70;;;;;;5110886;28;20046;-71
2022/03/16 13:09:35;;;;;;;2.22;1.33;;;22.20;33.70;;;;;;5105829;28;20142;-71
2022/03/16 13:14:43;;;;;;;2.03;1.52;;;22.20;34.50;;;;;;5125228;27;1162067;-67
2022/03/16 13:17:09;;;;;;;3.30;2.33;;;22.20;33.80;;;;;;5119998;27;20123;-71
2022/03/16 13:19:36;;;;;;;2.22;1.40;;;22.20;34.60;;;;;;5129436;27;20043;-69
2022/03/16 13:22:06;;;;;;;2.80;1.35;;;22.10;33.80;;;;;;5125253;27;20038;-72
2022/03/16 13:24:35;;;;;;;2.40;1.30;;;22.10;33.80;;;;;;5115170;28;20054;-70
2022/03/16 13:27:06;;;;;;;1.83;1.42;;;22.10;33.80;;;;;;5107286;28;20112;-73
2022/03/16 13:29:35;;;;;;;5.00;2.40;;;22.10;33.80;;;;;;5105440;28;20052;-70
2022/03/16 13:32:03;;;;;;;3.45;2.20;;;22.10;34.00;;;;;;5109290;27;20045;-74
2022/03/16 13:34:33;;;;;;;5.72;2.88;;;22.00;34.30;;;;;;5124278;27;20051;-70
2022/03/16 13:36:58;;;;;;;4.60;3.35;;;22.00;34.50;;;;;;5125131;27;20041;-73
2022/03/16 13:39:27;;;;;;;2.63;2.42;;;21.90;34.50;;;;;;5124981;27;20121;-74
2022/03/16 13:44:48;;;;;;;3.72;2.47;;;21.80;35.30;;;;;;5105192;27;20404;-71
2022/03/16 13:49:57;;;;;;;2.60;2.00;;;21.70;34.80;;;;;;5082458;28;20405;-74
2022/03/16 13:52:27;;;;;;;4.20;2.67;;;21.60;34.80;;;;;;5076006;28;20090;-74
2022/03/16 13:54:54;;;;;;;3.80;2.67;;;21.50;34.90;;;;;;5070535;28;20048;-70
2022/03/16 13:57:26;;;;;;;2.60;2.40;;;21.50;34.90;;;;;;5086757;28;20052;-73
2022/03/16 14:00:06;;;;;;;3.30;2.95;;;21.50;35.10;;;;;;5069427;28;20496;-72
2022/03/16 14:02:32;;;;;;;5.13;3.00;;;21.40;35.10;;;;;;5064236;28;20044;-70